Aérodrome :
LOGIN :

S'inscrire | Disclaimer

   EN    FR    IT 

 










Légende :    VFR   VFR Marginal   IFR   IFR Intensif   IFR Très Intensif
Visi : 
Plafond : 
>= 8 km
>= 3000ft
5 à 8 km
1000 à 3000 ft
1500m à 5 km
500 à 1000 ft
800 à 1500m
200 à 500 ft
< 800m
< 200 ft
Symboles :   Orages  Brouillard  Fortes neiges  Fortes précipitations  Vent > 20 kt
SIGMETs :   Divers  Orages  Givrage  Turbulence  Onde Orograph.  Cendres Volcan.







- Altitude de l'aérodrome : 194 ft
- Code IATA : ANE
- Voir les cartes d'approche


LFJR - Angers Marcé

DERNIER METAR :
  • 190500Z AUTO VRB01KT 2600 BR OVC002 07/07 Q1022

METARs EXPIRÉS :
  • 190430Z AUTO 00000KT 1600 1100 R26/P2000 BR VV/// 06/06 Q1021
  • 190400Z AUTO 15001KT 0700 0500 R26/1200U FG OVC003 06/06 Q1021
  • 190330Z AUTO 00000KT 0600 R26/0650D FG OVC003 06/05 Q1021
  • 190300Z AUTO 00000KT 0450 0400 R26/0750D FG BKN003 BKN082 OVC100 06/06 Q1021
  • 190230Z AUTO 00000KT 2500 BR FEW005 OVC082 07/07 Q1021

Prévision TAF périmée.
Pas de NOTAMs connus pour ce terrain.
2 SIGMETs publiés pour la FIR Brest (LFRR) :
 
Turbulence forte
LFRR SIGMET 2 VALID 190410/190800 LFPW
LFRR BREST FIR/UIR SEV TURB FCST WI N4630 W00130 - N4730 W00145 - N4830 W00015 - N4730 W00015 - N4630 W00130 FL180/280 MOV SE 10KT NC=
Turbulence forte
LFRR SIGMET 1 VALID 190400/190800 LFPW
LFRR BREST FIR/UIR SEV TURB FCST WI N4345 W00230 - N4415 W00500 - N4730 W00145 - N4630 W00145 - N4345 W00230 FL180/300 MOV SE 5KT NC=



MET'MAP, la Météo Aéronautique d'un coup d'oeil ! - Copyright ORBIFLY Décembre 2007 - Disclaimer

ORBIFLY MET'MAP TEAM :

Programmation & Développement : Alexandra Zaïnal
Conception & Développement : Baudouin d'Aumeries
Co-Programmation & Développement : Marc-Olivier Méhu
Soutien technique & logistique : Manuel Goepfert

Contact : metmap@orbifly.com




SOURCES & CREDITS :

   NOAA